Time;durP1;ratioP1;P1;durP2;ratioP2;P2;SDS_P1;SDS_P2;PMS_P1;PMS_P2;Temp;Humidity;BMP_temperature;BMP_pressure;BME280_temperature;BME280_humidity;BME280_pressure;Samples;Min_cycle;Max_cycle;Signal;HPM_P1;HPM_P2
2023/10/17 00:04:50;;;;;;;0.73;0.40;;;;;;;3.20;85.97;99444.88;10388788;28;20057;-76
2023/10/17 00:09:55;;;;;;;2.33;0.68;;;;;;;3.10;86.63;99443.97;10406155;28;20398;-77
2023/10/17 00:14:58;;;;;;;1.48;0.43;;;;;;;2.98;86.70;99447.72;10346431;28;20038;-76
2023/10/17 00:20:07;;;;;;;0.40;0.40;;;;;;;2.84;87.54;99441.09;10369935;28;20050;-76
2023/10/17 00:25:09;;;;;;;0.45;0.40;;;;;;;2.79;87.40;99453.81;10347204;28;20042;-77
2023/10/17 00:30:17;;;;;;;0.30;0.30;;;;;;;2.80;87.72;99445.41;10333795;28;20733;-76
2023/10/17 00:35:19;;;;;;;0.65;0.50;;;;;;;2.80;88.28;99453.53;10404977;28;20038;-76
2023/10/17 00:40:34;;;;;;;1.42;0.40;;;;;;;2.84;87.89;99451.94;10387620;28;20049;-77
2023/10/17 00:45:36;;;;;;;0.77;0.40;;;;;;;2.89;88.22;99460.09;10337952;28;20046;-76
2023/10/17 00:50:39;;;;;;;0.65;0.28;;;;;;;2.89;87.97;99460.09;10347885;28;20069;-76
2023/10/17 00:55:50;;;;;;;0.47;0.40;;;;;;;2.94;87.63;99462.00;10329701;28;20035;-76
2023/10/17 01:00:59;;;;;;;0.30;0.30;;;;;;;2.97;88.06;99478.59;10347326;28;20041;-76
2023/10/17 01:11:22;;;;;;;0.55;0.30;;;;;;;3.15;87.96;99466.53;10383929;28;20052;-76
2023/10/17 01:16:25;;;;;;;0.47;0.20;;;;;;;3.19;87.88;99478.47;10368597;28;20565;-76
2023/10/17 01:21:28;;;;;;;0.40;0.40;;;;;;;3.23;87.33;99476.88;10444629;28;20033;-76
2023/10/17 01:26:30;;;;;;;1.30;0.52;;;;;;;3.24;87.80;99477.69;10446693;28;20088;-76
2023/10/17 01:31:38;;;;;;;1.40;0.40;;;;;;;3.26;87.70;99481.75;10451080;28;20413;-76
2023/10/17 01:36:44;;;;;;;0.95;0.52;;;;;;;3.32;88.10;99479.91;10455240;28;20045;-77
2023/10/17 01:41:50;;;;;;;0.43;0.40;;;;;;;3.30;87.52;99484.78;10395205;28;20041;-77
2023/10/17 01:46:53;;;;;;;1.42;0.30;;;;;;;3.31;87.92;99486.41;10426278;28;20064;-77
2023/10/17 01:51:57;;;;;;;0.35;0.35;;;;;;;3.21;88.50;99487.16;10443977;28;20528;-77
2023/10/17 01:57:06;;;;;;;0.52;0.52;;;;;;;3.23;88.13;99490.41;10443209;28;20042;-77
2023/10/17 02:02:08;;;;;;;0.73;0.57;;;;;;;3.25;88.61;99496.41;10428682;28;20048;-76
2023/10/17 02:07:10;;;;;;;0.57;0.50;;;;;;;3.18;88.80;99506.66;10433878;28;20045;-77
2023/10/17 02:12:13;;;;;;;0.65;0.40;;;;;;;3.12;89.06;99504.97;10428899;28;20038;-78
2023/10/17 02:17:18;;;;;;;0.45;0.45;;;;;;;3.10;89.28;99519.84;10392828;28;20141;-77
2023/10/17 02:22:24;;;;;;;1.60;0.57;;;;;;;3.06;90.21;99519.56;10396493;28;20046;-76
2023/10/17 02:27:28;;;;;;;0.73;0.30;;;;;;;3.05;90.43;99517.94;10393285;28;20038;-78
2023/10/17 02:32:32;;;;;;;0.73;0.50;;;;;;;3.10;90.74;99526.09;10382201;28;20038;-77
2023/10/17 02:37:36;;;;;;;0.43;0.30;;;;;;;3.06;90.68;99530.41;10405230;28;20048;-76
2023/10/17 02:42:38;;;;;;;0.60;0.47;;;;;;;3.03;90.83;99530.94;10408999;28;20045;-76
2023/10/17 02:47:43;;;;;;;0.63;0.40;;;;;;;3.09;91.04;99538.00;10399869;28;20052;-77
2023/10/17 02:52:51;;;;;;;0.85;0.40;;;;;;;3.08;91.12;99536.38;10431309;28;20037;-75
2023/10/17 02:57:54;;;;;;;1.02;0.70;;;;;;;3.03;92.44;99547.19;10401651;28;20521;-78
2023/10/17 03:02:58;;;;;;;1.13;0.40;;;;;;;2.97;93.30;99549.06;10431818;28;20042;-77
2023/10/17 03:08:09;;;;;;;0.50;0.30;;;;;;;2.99;93.75;99560.44;10413880;28;20050;-77
2023/10/17 03:18:22;;;;;;;0.47;0.30;;;;;;;2.85;95.27;99558.41;10439148;28;20663;-77
2023/10/17 03:23:27;;;;;;;0.43;0.20;;;;;;;2.82;95.59;99559.75;10411567;28;20045;-77
2023/10/17 03:28:33;;;;;;;0.40;0.40;;;;;;;2.77;95.80;99564.28;10434013;28;20045;-77
2023/10/17 03:33:40;;;;;;;2.67;0.47;;;;;;;2.62;95.98;99573.91;10388839;28;20030;-74
2023/10/17 03:38:51;;;;;;;0.73;0.30;;;;;;;2.60;95.76;99570.66;10420247;28;20633;-73
2023/10/17 03:43:53;;;;;;;1.15;0.35;;;;;;;2.53;95.98;99580.03;10401067;28;20040;-76
2023/10/17 03:49:00;;;;;;;1.52;0.30;;;;;;;2.54;96.16;99581.66;10453274;28;20037;-77
2023/10/17 03:54:08;;;;;;;2.90;0.30;;;;;;;2.48;94.96;99585.41;10456927;28;20037;-77
2023/10/17 04:04:31;;;;;;;0.43;0.28;;;;;;;2.48;94.98;99596.22;10444726;28;20029;-77
2023/10/17 04:10:01;;;;;;;0.52;0.28;;;;;;;2.48;94.23;99601.63;10430762;28;20038;-76
2023/10/17 04:14:59;;;;;;;0.60;0.40;;;;;;;2.47;93.54;99616.25;10400032;28;20128;-78
2023/10/17 04:20:16;;;;;;;0.30;0.20;;;;;;;2.54;93.13;99619.56;10431300;28;20053;-80
2023/10/17 04:30:56;;;;;;;0.30;0.30;;;;;;;2.69;92.43;99623.28;10412819;28;20056;-77
2023/10/17 04:36:03;;;;;;;0.43;0.40;;;;;;;2.68;92.08;99626.22;10433325;28;20048;-77
2023/10/17 04:46:16;;;;;;;0.30;0.30;;;;;;;2.73;91.72;99646.06;10420234;28;20647;-77
2023/10/17 04:51:25;;;;;;;0.43;0.28;;;;;;;2.76;91.64;99650.16;10427743;28;20136;-76
2023/10/17 04:56:41;;;;;;;0.37;0.30;;;;;;;2.81;91.27;99654.81;10412362;28;20038;-78
2023/10/17 05:01:53;;;;;;;0.98;0.38;;;;;;;2.77;91.97;99664.50;10431614;28;20489;-77
2023/10/17 06:32:48;;;;;;;2.33;0.50;;;;;;;4.04;84.07;99687.34;10468763;28;20044;-78
2023/10/17 06:37:51;;;;;;;0.93;0.63;;;;;;;4.10;83.50;99694.44;10435762;28;20043;-76
2023/10/17 06:42:59;;;;;;;0.93;0.68;;;;;;;3.77;85.50;99690.97;10459613;28;20562;-77
2023/10/17 06:48:07;;;;;;;0.60;0.60;;;;;;;3.70;84.89;99684.13;10467152;28;20052;-79
2023/10/17 06:53:15;;;;;;;;;;;;;;;3.59;84.61;99694.06;10442111;28;20124;-77
2023/10/17 06:58:21;;;;;;;1.60;0.93;;;;;;;5.85;77.38;99688.16;10433562;28;19920;-78
2023/10/17 07:03:28;;;;;;;1.42;0.77;;;;;;;6.16;73.13;99688.16;10433768;28;20048;-78
2023/10/17 07:08:36;;;;;;;3.42;1.23;;;;;;;5.73;73.11;99696.63;10432915;28;20045;-79
2023/10/17 07:19:46;;;;;;;1.73;1.00;;;;;;;5.96;73.13;99692.56;10446269;28;20049;-77
2023/10/17 07:24:37;;;;;;;1.50;1.00;;;;;;;5.84;71.31;99702.88;10443563;28;20037;-78
2023/10/17 07:29:45;;;;;;;1.33;0.73;;;;;;;4.91;74.08;99707.63;10430101;28;20060;-79
2023/10/17 07:34:52;;;;;;;4.28;0.80;;;;;;;5.66;72.60;99698.78;10463579;28;20040;-79
2023/10/17 07:45:26;;;;;;;1.58;0.70;;;;;;;5.25;74.46;99703.38;10424812;28;20076;-80
2023/10/17 07:50:33;;;;;;;1.85;0.85;;;;;;;6.60;68.92;99693.78;10411531;28;20087;-80
2023/10/17 07:55:38;;;;;;;1.40;0.80;;;;;;;5.92;70.90;99696.91;10445196;28;20033;-67
2023/10/17 08:06:58;;;;;;;0.95;0.90;;;;;;;6.51;69.19;99695.44;10477403;28;20064;-92
2023/10/17 08:12:03;;;;;;;1.15;0.77;;;;;;;6.09;70.04;99699.34;10459611;28;20140;-91
2023/10/17 08:17:09;;;;;;;1.98;0.75;;;;;;;5.00;73.12;99709.53;10478997;28;20063;-91
2023/10/17 08:22:17;;;;;;;0.98;0.77;;;;;;;4.53;74.68;99712.38;10511144;28;20042;-91
2023/10/17 08:32:38;;;;;;;1.38;0.80;;;;;;;4.57;75.54;99715.38;10485220;28;20095;-92
2023/10/17 08:37:43;;;;;;;1.63;0.82;;;;;;;4.40;75.51;99718.25;10478873;28;20033;-93
2023/10/17 08:42:49;;;;;;;1.70;0.80;;;;;;;4.60;75.14;99720.25;10460370;28;20051;-95
2023/10/17 08:48:00;;;;;;;2.80;1.23;;;;;;;4.73;75.30;99722.50;10433626;28;20040;-92
2023/10/17 08:53:06;;;;;;;1.33;0.70;;;;;;;4.81;74.32;99711.13;10499479;28;20416;-91
2023/10/17 08:58:09;;;;;;;1.02;0.70;;;;;;;4.74;74.89;99724.13;10472912;28;20139;-91
2023/10/17 09:03:37;;;;;;;1.98;0.80;;;;;;;4.60;75.41;99725.69;10490385;28;20048;-95
2023/10/17 09:08:50;;;;;;;1.42;0.90;;;;;;;4.36;75.96;99725.31;10452400;28;20451;-91
2023/10/17 09:14:14;;;;;;;1.05;0.90;;;;;;;4.36;76.04;99726.13;10496199;22;20055;-66
2023/10/17 09:19:16;;;;;;;1.30;0.90;;;;;;;4.34;75.84;99732.88;10564946;28;20035;-67
2023/10/17 09:24:40;;;;;;;1.90;0.90;;;;;;;4.44;75.18;99725.63;10566668;28;20410;-67
2023/10/17 09:29:47;;;;;;;2.97;1.08;;;;;;;4.32;74.71;99733.13;10557301;28;20048;-66
2023/10/17 09:34:49;;;;;;;;;;;;;;;4.40;75.14;99731.84;10567906;28;20036;-66
2023/10/17 09:39:53;;;;;;;2.65;1.48;;;;;;;4.47;75.58;99730.50;10565303;28;20566;-66
2023/10/17 09:44:56;;;;;;;1.88;1.10;;;;;;;4.58;75.74;99727.88;10557587;28;20044;-66
2023/10/17 09:50:01;;;;;;;2.38;0.95;;;;;;;4.70;74.88;99725.75;10566271;28;20032;-67
2023/10/17 09:55:06;;;;;;;1.63;0.98;;;;;;;4.82;74.63;99734.50;10562565;28;20493;-67
2023/10/17 10:00:15;;;;;;;1.67;1.10;;;;;;;4.83;74.15;99731.50;10547975;28;20040;-66
2023/10/17 10:05:25;;;;;;;1.83;1.00;;;;;;;5.05;73.34;99746.84;10521124;28;20037;-67
2023/10/17 10:10:43;;;;;;;1.30;0.80;;;;;;;5.04;72.59;99748.75;10497987;28;20147;-67
2023/10/17 10:15:51;;;;;;;;;;;;;;;5.11;72.93;99751.19;10519996;28;20048;-67
2023/10/17 10:20:56;;;;;;;;;;;;;;;5.10;73.47;99750.38;10525951;28;19920;-67
2023/10/17 10:26:19;;;;;;;2.78;1.50;;;;;;;5.03;73.31;99757.97;10529681;28;19920;-66
2023/10/17 10:31:21;;;;;;;2.22;1.00;;;;;;;4.90;73.31;99765.78;10534046;28;20051;-66
2023/10/17 10:36:25;;;;;;;1.10;0.80;;;;;;;5.03;74.54;99770.72;10518616;28;20059;-66
2023/10/17 10:41:27;;;;;;;2.25;0.85;;;;;;;4.96;73.04;99765.53;10519085;28;20045;-66
2023/10/17 10:46:31;;;;;;;1.20;1.10;;;;;;;4.89;74.06;99764.97;10511935;28;20036;-66
2023/10/17 10:51:33;;;;;;;1.42;1.15;;;;;;;5.12;73.50;99771.88;10531434;28;20433;-66
2023/10/17 10:56:37;;;;;;;1.05;0.90;;;;;;;5.02;74.07;99769.91;10514375;28;20044;-67
2023/10/17 11:01:40;;;;;;;1.10;0.90;;;;;;;5.10;74.14;99776.75;10498246;28;20047;-67
2023/10/17 11:06:42;;;;;;;1.20;1.10;;;;;;;4.96;73.21;99776.41;10527022;28;20032;-67
2023/10/17 11:11:45;;;;;;;1.45;0.90;;;;;;;4.92;72.83;99780.75;10525717;28;20041;-68
2023/10/17 11:16:50;;;;;;;1.17;0.90;;;;;;;4.89;73.15;99785.91;10475125;28;20048;-67
2023/10/17 11:21:58;;;;;;;1.95;1.10;;;;;;;4.93;73.08;99797.88;10487071;28;20052;-67
2023/10/17 11:27:03;;;;;;;1.50;0.93;;;;;;;4.94;73.19;99800.34;10513578;28;20533;-67
2023/10/17 11:32:05;;;;;;;1.77;0.90;;;;;;;4.90;73.72;99810.09;10504991;28;20040;-67
2023/10/17 11:37:11;;;;;;;2.42;1.05;;;;;;;4.84;74.01;99809.25;10455951;28;20129;-67
2023/10/17 11:42:22;;;;;;;1.30;1.02;;;;;;;4.85;74.07;99807.34;10479001;28;20056;-67
2023/10/17 11:47:28;;;;;;;2.35;1.00;;;;;;;4.91;73.82;99805.50;10513505;28;20040;-67
2023/10/17 11:52:30;;;;;;;1.73;1.20;;;;;;;5.06;74.15;99806.38;10487848;28;20548;-67
2023/10/17 11:57:32;;;;;;;2.28;1.10;;;;;;;5.02;73.66;99813.41;10528233;28;20087;-69
2023/10/17 12:02:41;;;;;;;2.45;1.30;;;;;;;5.06;73.35;99805.56;10486682;28;20032;-68
2023/10/17 12:07:50;;;;;;;3.83;1.38;;;;;;;5.14;73.04;99805.84;10518671;28;20040;-68
2023/10/17 12:12:52;;;;;;;1.30;1.08;;;;;;;5.13;73.15;99811.56;10437860;28;20060;-69
2023/10/17 12:17:54;;;;;;;1.45;1.10;;;;;;;4.92;73.58;99826.16;10495866;28;20044;-69
2023/10/17 12:22:57;;;;;;;1.55;1.20;;;;;;;4.90;74.73;99820.97;10521372;28;20443;-68
2023/10/17 12:28:02;;;;;;;2.15;1.20;;;;;;;4.86;74.07;99825.31;10478861;28;20044;-70
2023/10/17 12:33:05;;;;;;;2.53;1.30;;;;;;;4.83;74.89;99832.06;10508752;28;20503;-67
2023/10/17 12:38:25;;;;;;;2.28;1.42;;;;;;;4.75;75.10;99829.06;10494900;28;20032;-67
2023/10/17 12:43:27;;;;;;;1.40;1.08;;;;;;;4.66;75.46;99833.31;10505340;28;20414;-68
2023/10/17 12:48:30;;;;;;;3.17;1.50;;;;;;;4.68;74.94;99831.97;10486232;28;20029;-68
2023/10/17 12:53:32;;;;;;;2.08;1.30;;;;;;;4.66;74.56;99833.31;10502587;28;20479;-68
2023/10/17 12:58:36;;;;;;;3.20;1.48;;;;;;;4.61;74.49;99838.72;10501889;28;20047;-69
2023/10/17 13:03:38;;;;;;;2.55;1.48;;;;;;;4.56;73.51;99836.81;10514998;28;20032;-68
2023/10/17 13:08:40;;;;;;;2.50;1.60;;;;;;;4.63;72.66;99825.69;10502466;28;20059;-69
2023/10/17 13:13:42;;;;;;;4.07;1.25;;;;;;;4.69;70.23;99830.09;10502933;28;20048;-68
2023/10/17 13:18:47;;;;;;;3.72;1.20;;;;;;;4.80;70.29;99837.22;10521189;28;20048;-67
2023/10/17 13:23:49;;;;;;;1.45;1.20;;;;;;;4.84;69.97;99835.59;10480305;28;20036;-68
2023/10/17 13:28:53;;;;;;;2.80;1.13;;;;;;;4.83;69.64;99840.22;10516753;28;20037;-67
2023/10/17 13:33:56;;;;;;;2.58;1.60;;;;;;;4.80;70.16;99832.59;10506604;28;20047;-66
2023/10/17 13:38:58;;;;;;;2.60;1.38;;;;;;;4.79;69.76;99839.13;10495274;28;20051;-65
2023/10/17 13:44:00;;;;;;;4.07;1.20;;;;;;;4.90;69.84;99836.47;10487097;28;20036;-65
2023/10/17 13:49:02;;;;;;;4.40;1.58;;;;;;;4.80;69.75;99839.94;10483479;28;20043;-65
2023/10/17 13:54:05;;;;;;;2.95;1.40;;;;;;;4.78;70.29;99852.97;10506363;28;20039;-67
2023/10/17 13:59:09;;;;;;;1.40;1.13;;;;;;;4.72;69.63;99848.59;10495869;28;20040;-67
2023/10/17 14:04:11;;;;;;;3.38;1.33;;;;;;;4.77;69.21;99849.44;10476360;28;20422;-67
2023/10/17 14:09:17;;;;;;;2.53;1.35;;;;;;;4.62;68.94;99857.50;10472606;28;20139;-67
2023/10/17 14:14:21;;;;;;;2.03;1.40;;;;;;;4.58;69.66;99858.28;10466520;28;20049;-68
2023/10/17 14:29:58;;;;;;;3.07;1.93;;;;;;;5.18;70.34;99876.03;10518527;28;20040;-69
2023/10/17 14:35:04;;;;;;;3.25;1.40;;;;;;;4.98;68.31;99877.56;10482057;28;20036;-70
2023/10/17 14:40:11;;;;;;;2.47;1.42;;;;;;;4.59;69.60;99879.75;10482041;28;20043;-68
2023/10/17 14:45:15;;;;;;;2.72;1.70;;;;;;;4.41;69.67;99889.13;10481203;28;20043;-68
2023/10/17 14:50:18;;;;;;;2.30;1.50;;;;;;;4.35;70.30;99884.72;10504533;28;20400;-68
2023/10/17 14:55:26;;;;;;;2.85;1.63;;;;;;;4.31;70.00;99883.59;10475321;28;20041;-67
2023/10/17 15:00:28;;;;;;;4.32;2.03;;;;;;;4.24;70.54;99880.28;10489681;28;20063;-69
2023/10/17 15:05:31;;;;;;;2.67;1.80;;;;;;;4.20;70.03;99873.72;10499930;28;20041;-66
2023/10/17 15:10:33;;;;;;;2.97;1.58;;;;;;;4.13;70.41;99875.81;10521663;22;20060;-71
2023/10/17 15:15:36;;;;;;;2.80;1.65;;;;;;;4.11;70.49;99884.22;10522175;28;20041;-70
2023/10/17 15:20:39;;;;;;;1.70;1.40;;;;;;;4.12;70.53;99885.03;10502811;28;20048;-71
2023/10/17 15:25:42;;;;;;;1.92;1.50;;;;;;;4.08;70.22;99889.34;10547132;22;20060;-68
2023/10/17 15:30:44;;;;;;;2.08;1.50;;;;;;;4.00;70.09;99887.94;10560629;28;20035;-68
2023/10/17 15:35:48;;;;;;;2.70;1.50;;;;;;;3.99;70.18;99890.88;10565103;28;20032;-69
2023/10/17 15:40:51;;;;;;;2.25;1.60;;;;;;;3.92;70.62;99894.63;10545375;22;20054;-81
2023/10/17 15:45:55;;;;;;;1.90;1.35;;;;;;;3.97;70.13;99888.44;10483367;28;20044;-81
2023/10/17 15:50:57;;;;;;;5.53;1.83;;;;;;;3.77;70.89;99890.94;10433041;28;20512;-81
2023/10/17 15:56:01;;;;;;;2.85;1.67;;;;;;;3.71;70.96;99892.78;10525134;22;20056;-78
2023/10/17 16:01:04;;;;;;;2.88;1.50;;;;;;;3.60;71.24;99891.00;10586049;28;20067;-78
2023/10/17 16:06:07;;;;;;;3.00;1.52;;;;;;;3.64;72.26;99900.28;10571611;28;20047;-80
2023/10/17 16:11:10;;;;;;;3.05;2.10;;;;;;;3.61;71.83;99900.78;10564718;22;20040;-80
2023/10/17 16:16:13;;;;;;;4.35;2.00;;;;;;;3.61;72.90;99896.19;10525357;28;20048;-80
2023/10/17 16:21:17;;;;;;;3.72;2.20;;;;;;;3.74;72.91;99900.41;10521231;28;20040;-79
2023/10/17 16:26:20;;;;;;;4.68;2.47;;;;;;;3.72;73.02;99899.03;10558069;22;20078;-72
2023/10/17 16:31:25;;;;;;;5.90;2.83;;;;;;;3.66;72.90;99895.44;10569984;28;20291;-72
2023/10/17 16:36:27;;;;;;;4.53;2.70;;;;;;;3.63;73.71;99891.31;10565789;28;20137;-72
2023/10/17 16:41:31;;;;;;;6.60;3.33;;;;;;;3.55;73.33;99891.78;10577131;22;20060;-68
2023/10/17 16:46:33;;;;;;;4.78;2.53;;;;;;;3.49;74.45;99897.41;10526017;28;20067;-68
2023/10/17 16:51:38;;;;;;;5.30;2.67;;;;;;;3.44;74.02;99895.44;10525394;28;20047;-68
2023/10/17 16:56:40;;;;;;;3.83;2.47;;;;;;;3.42;74.94;99896.75;10521576;28;20044;-67
2023/10/17 17:01:43;;;;;;;4.82;2.55;;;;;;;3.36;74.32;99897.78;10490932;28;20044;-68
2023/10/17 17:06:45;;;;;;;3.97;2.20;;;;;;;3.24;75.16;99896.00;10479728;28;20411;-67
2023/10/17 17:11:48;;;;;;;4.20;2.10;;;;;;;3.10;75.45;99896.59;10483274;28;20063;-66
2023/10/17 17:16:54;;;;;;;4.60;2.30;;;;;;;2.96;75.59;99891.56;10483307;28;20128;-65
2023/10/17 17:21:56;;;;;;;4.20;2.47;;;;;;;2.91;75.47;99902.31;10467545;28;20044;-66
2023/10/17 17:26:59;;;;;;;3.58;2.25;;;;;;;2.82;75.87;99913.84;10483654;28;20419;-67
2023/10/17 17:32:01;;;;;;;3.70;2.35;;;;;;;2.80;76.09;99913.28;10481745;28;20041;-68
2023/10/17 17:37:03;;;;;;;4.40;2.33;;;;;;;2.81;76.82;99914.91;10472587;28;20076;-67
2023/10/17 17:42:07;;;;;;;3.30;2.10;;;;;;;2.84;76.80;99922.53;10476029;28;20427;-67
2023/10/17 17:47:10;;;;;;;4.55;2.25;;;;;;;2.89;77.12;99912.59;10483059;28;20083;-67
2023/10/17 17:52:13;;;;;;;4.30;2.47;;;;;;;2.92;77.40;99912.09;10470096;28;20140;-67
2023/10/17 17:57:15;;;;;;;3.72;2.08;;;;;;;2.92;77.45;99919.38;10464321;28;20044;-68
2023/10/17 18:02:19;;;;;;;5.05;2.70;;;;;;;2.92;77.40;99924.81;10476088;28;20052;-68
2023/10/17 18:07:22;;;;;;;3.17;2.10;;;;;;;2.95;77.68;99929.72;10479066;28;20069;-68
2023/10/17 18:12:25;;;;;;;2.65;1.60;;;;;;;2.98;78.12;99926.53;10478870;28;20036;-68
2023/10/17 18:17:28;;;;;;;2.97;1.92;;;;;;;2.97;77.55;99925.72;10470337;28;20036;-68
2023/10/17 18:22:30;;;;;;;3.15;1.80;;;;;;;3.05;77.52;99929.88;10468288;28;20028;-68
2023/10/17 18:27:33;;;;;;;3.47;2.20;;;;;;;3.09;77.69;99932.91;10463992;28;20075;-69
2023/10/17 18:32:37;;;;;;;3.58;2.38;;;;;;;3.09;77.76;99936.44;10475455;28;20040;-67
2023/10/17 18:37:41;;;;;;;5.45;2.80;;;;;;;3.07;78.26;99929.63;10469960;28;20037;-69
2023/10/17 18:42:43;;;;;;;4.95;2.50;;;;;;;3.11;78.18;99938.91;10468463;28;20049;-70
2023/10/17 18:47:48;;;;;;;4.55;2.22;;;;;;;3.11;78.30;99934.31;10484245;28;20041;-71
2023/10/17 18:52:50;;;;;;;4.50;2.50;;;;;;;3.03;78.09;99943.69;10484856;28;20608;-71
2023/10/17 18:57:52;;;;;;;4.65;2.10;;;;;;;3.00;78.43;99932.53;10480541;28;20025;-70
2023/10/17 19:02:56;;;;;;;4.07;2.10;;;;;;;2.99;78.50;99939.03;10482107;28;20048;-72
2023/10/17 19:07:59;;;;;;;5.97;2.50;;;;;;;2.93;78.28;99932.69;10463790;28;20038;-71
2023/10/17 19:13:01;;;;;;;3.45;2.10;;;;;;;2.94;78.44;99938.94;10431391;28;20056;-69
2023/10/17 19:18:04;;;;;;;6.63;2.20;;;;;;;2.92;77.32;99936.47;10430833;28;20462;-70
2023/10/17 19:23:07;;;;;;;3.65;2.00;;;;;;;2.94;76.06;99933.50;10451282;28;20400;-70
2023/10/17 19:28:12;;;;;;;4.75;1.98;;;;;;;2.97;75.53;99928.44;10484419;28;20469;-71
2023/10/17 19:33:15;;;;;;;4.45;2.08;;;;;;;2.96;75.16;99932.22;10453790;28;20036;-69
2023/10/17 19:38:17;;;;;;;3.17;2.00;;;;;;;2.95;75.43;99927.88;10447696;28;20037;-70
2023/10/17 19:43:19;;;;;;;2.35;1.50;;;;;;;2.96;75.47;99929.50;10467295;28;20045;-71
2023/10/17 19:48:23;;;;;;;3.15;2.10;;;;;;;2.90;75.46;99933.19;10485807;28;20431;-70
2023/10/17 19:53:26;;;;;;;2.72;1.23;;;;;;;2.89;74.28;99925.31;10450516;28;20124;-71
2023/10/17 19:58:29;;;;;;;2.03;1.35;;;;;;;2.84;72.87;99928.78;10466764;28;20041;-70
2023/10/17 20:03:31;;;;;;;0.75;0.70;;;;;;;2.87;70.79;99924.75;10465142;28;20032;-71
2023/10/17 20:08:34;;;;;;;2.10;0.85;;;;;;;2.81;70.90;99920.31;10485875;28;20420;-70
2023/10/17 20:13:39;;;;;;;0.88;0.60;;;;;;;2.84;71.46;99917.13;10483052;28;20037;-70
2023/10/17 20:18:41;;;;;;;1.05;0.85;;;;;;;2.89;71.50;99920.72;10485713;28;20123;-70
2023/10/17 20:23:44;;;;;;;1.92;0.93;;;;;;;2.92;72.45;99920.22;10467552;28;20072;-68
2023/10/17 20:28:46;;;;;;;2.10;0.80;;;;;;;2.90;71.59;99908.81;10444010;28;20628;-70
2023/10/17 20:33:49;;;;;;;1.00;0.77;;;;;;;2.85;71.60;99911.44;10416551;28;20038;-69
2023/10/17 20:38:51;;;;;;;1.20;0.80;;;;;;;2.87;71.84;99922.03;10484597;28;20041;-70
2023/10/17 20:43:54;;;;;;;1.90;0.80;;;;;;;2.88;71.61;99923.69;10437701;28;20420;-69
2023/10/17 20:48:58;;;;;;;1.88;0.85;;;;;;;2.77;71.51;99919.16;10461815;28;20045;-70
2023/10/17 20:54:08;;;;;;;1.27;0.70;;;;;;;2.80;71.81;99918.69;10459791;28;20025;-68
2023/10/17 20:59:14;;;;;;;1.02;0.65;;;;;;;2.86;72.19;99920.41;10458382;28;20136;-71
2023/10/17 21:04:20;;;;;;;1.50;0.93;;;;;;;2.81;71.97;99917.63;10460798;28;20062;-71
2023/10/17 21:09:22;;;;;;;1.02;0.90;;;;;;;2.81;72.13;99923.03;10464207;28;20036;-70
2023/10/17 21:14:25;;;;;;;1.38;0.80;;;;;;;2.72;72.54;99912.59;10483647;28;20396;-70
2023/10/17 21:19:28;;;;;;;1.17;0.80;;;;;;;2.73;72.82;99914.25;10465649;28;20033;-69
2023/10/17 21:24:31;;;;;;;1.30;0.70;;;;;;;2.86;74.64;99917.69;10465602;28;20526;-69
2023/10/17 21:29:34;;;;;;;1.55;1.00;;;;;;;3.24;73.11;99904.13;10464483;28;20041;-70
2023/10/17 21:34:36;;;;;;;1.00;0.77;;;;;;;3.23;72.22;99904.38;10444063;28;20044;-71
2023/10/17 21:39:39;;;;;;;0.85;0.80;;;;;;;3.59;70.43;99901.03;10465549;28;20043;-69
2023/10/17 21:44:42;;;;;;;1.80;0.80;;;;;;;3.54;69.85;99902.88;10477991;28;20033;-69
2023/10/17 21:49:45;;;;;;;1.58;0.88;;;;;;;3.30;69.95;99908.56;10461682;28;20045;-70
2023/10/17 21:54:48;;;;;;;1.85;1.27;;;;;;;3.13;71.27;99915.09;10464788;28;20040;-71
2023/10/17 21:59:53;;;;;;;1.92;1.00;;;;;;;2.88;72.03;99919.06;10415907;28;20037;-70
2023/10/17 22:04:55;;;;;;;0.77;0.77;;;;;;;2.65;72.54;99916.56;10470914;28;20499;-71
2023/10/17 22:09:58;;;;;;;1.35;0.77;;;;;;;2.56;73.12;99926.16;10454494;28;20033;-70
2023/10/17 22:15:00;;;;;;;1.58;0.70;;;;;;;2.38;73.13;99924.50;10445450;28;20052;-70
2023/10/17 22:20:03;;;;;;;2.42;0.80;;;;;;;2.39;72.96;99921.53;10468234;28;20036;-71
2023/10/17 22:25:08;;;;;;;0.88;0.77;;;;;;;2.32;72.81;99929.00;10479475;28;20550;-70
2023/10/17 22:30:11;;;;;;;1.42;0.57;;;;;;;2.32;73.14;99925.50;10478429;28;20131;-70
2023/10/17 22:35:13;;;;;;;0.60;0.57;;;;;;;2.29;73.31;99931.41;10488366;28;20037;-70
2023/10/17 22:40:17;;;;;;;0.47;0.47;;;;;;;2.26;74.35;99937.31;10486571;28;20136;-69
2023/10/17 22:45:21;;;;;;;0.82;0.52;;;;;;;2.15;73.66;99936.28;10463364;28;20638;-70
2023/10/17 22:50:24;;;;;;;3.55;0.60;;;;;;;2.13;73.26;99933.00;10486076;28;20120;-70
2023/10/17 22:55:27;;;;;;;1.25;0.38;;;;;;;2.16;73.08;99931.69;10483902;28;20033;-70
2023/10/17 23:00:31;;;;;;;0.95;0.55;;;;;;;2.18;73.67;99937.69;10483585;28;20051;-70
2023/10/17 23:05:33;;;;;;;0.63;0.52;;;;;;;2.24;73.91;99936.69;10462795;28;20038;-70
2023/10/17 23:10:37;;;;;;;0.60;0.55;;;;;;;2.20;74.03;99938.25;10471548;28;20068;-70
2023/10/17 23:15:41;;;;;;;0.45;0.45;;;;;;;2.26;73.82;99934.59;10489054;28;20029;-70
2023/10/17 23:20:44;;;;;;;1.35;0.55;;;;;;;2.29;73.69;99934.09;10483227;28;20075;-70
2023/10/17 23:25:46;;;;;;;1.48;0.77;;;;;;;2.18;73.69;99937.69;10483971;28;20037;-70
2023/10/17 23:30:48;;;;;;;1.23;0.50;;;;;;;2.15;73.68;99946.28;10469032;28;20040;-69
2023/10/17 23:35:51;;;;;;;0.50;0.40;;;;;;;2.13;73.56;99951.13;10487326;28;20530;-70
2023/10/17 23:40:54;;;;;;;0.90;0.70;;;;;;;2.02;73.45;99939.28;10468059;28;20061;-70
2023/10/17 23:45:57;;;;;;;0.82;0.70;;;;;;;1.95;73.78;99931.31;10481072;28;20037;-70
2023/10/17 23:51:02;;;;;;;2.35;0.63;;;;;;;1.98;74.35;99941.66;10488319;28;20045;-69
2023/10/17 23:56:08;;;;;;;4.20;1.75;;;;;;;2.06;74.56;99946.66;10487273;28;20033;-70
